Flight Track Log - Related Links

Times and Time Zones

All times are in EDT time to prevent confusion due to time zone crossing. See the GJS3707 flight status page for this flight to view local times or setup timezone preferences in your user account.

Time Position Orientation Groundspeed Altitude Reporting Facility
EDT Latitude Longitude Course Direction KTS MPH feet Rate Location/Type
Wed 10:54:54 AM 42.0000 -87.9667 270° West 181 208 2,000  Level Chicago TRACON
Wed 10:55:54 AM 41.9833 -88.0500 255° West 239 275 3,800 1,362 Climbing Chicago TRACON
Wed 10:57:00 AM 41.9667 -88.3042 270° West  Level FlightAware Approximate
Wed 10:57:15 AM 41.9953 -88.1564 279° West 263 303 5,200  Level Chicago Center
Wed 10:58:00 AM 41.9667 -88.4389 270° West  Level FlightAware Approximate
Wed 10:58:17 AM 42.0094 -88.2697 280° West 261 300 8,400  Level Chicago Center
Wed 10:59:00 AM 41.9668 -88.5736 270° West  Level FlightAware Approximate
Wed 10:59:18 AM 42.0397 -88.3547 296° West 259 298 10,800  Level Chicago Center
Wed 11:00:00 AM 41.9667 -88.7083 270° West  Level FlightAware Approximate
Wed 11:00:20 AM 42.0806 -88.4342 305° West 260 299 12,800  Level Chicago Center
Wed 11:01:22 AM 42.0789 -88.5344 269° West 287 330 13,600 1,016 Climbing Chicago Center
Wed 11:02:24 AM 42.0572 -88.6728 258° West 317 365 14,900 1,258 Climbing Chicago Center
Wed 11:03:26 AM 42.0556 -88.8011 269° West 344 396 16,200 1,258 Climbing Chicago Center
Wed 11:04:28 AM 42.0575 -88.9306 271° West 349 402 17,500 1,258 Climbing Chicago Center
Wed 11:05:30 AM 42.0644 -89.0628 274° West 357 411 18,800 1,355 Climbing Chicago Center
Wed 11:06:32 AM 42.0728 -89.2167 274° West 369 425 20,300 1,355 Climbing Chicago Center
Wed 11:07:34 AM 42.0789 -89.3561 273° West 373 429 21,600 1,306 Climbing Chicago Center
Wed 11:08:36 AM 42.0567 -89.5022 258° West 378 435 23,000 1,210 Climbing Chicago Center
Wed 11:09:38 AM 42.0372 -89.6389 259° West 376 433 24,100 1,122 Climbing Chicago Center
Wed 11:10:39 AM 42.0408 -89.7797 272° West 382 440 25,300 1,317 Climbing Chicago Center
Wed 11:11:41 AM 42.0539 -89.9281 277° West 385 443 26,800 1,500 Climbing Chicago Center
Wed 11:12:43 AM 42.0675 -90.0639 278° West 373 429 28,400 1,258 Climbing Chicago Center
Wed 11:13:45 AM 42.0833 -90.2006 279° West 373 429 29,400 726 Climbing Chicago Center
Wed 11:14:47 AM 42.1003 -90.3356 280° West 369 425 29,900 629 Climbing Chicago Center
Wed 11:15:49 AM 42.1194 -90.5039 279° West 381 438 30,700 683 Climbing Chicago Center
Wed 11:16:50 AM 42.1361 -90.6458 279° West 386 444 31,300 585 Climbing Chicago Center
Wed 11:17:52 AM 42.1539 -90.7906 279° West 391 450 31,900 581 Climbing Chicago Center
Wed 11:18:54 AM 42.1708 -90.9342 279° West 391 450 32,500 581 Climbing Chicago Center
Wed 11:19:56 AM 42.1858 -91.0811 278° West 397 457 33,100 629 Climbing Chicago Center
Wed 11:20:58 AM 42.2322 -91.2478 291° West 400 460 33,800 629 Climbing Chicago Center
Wed 11:22:00 AM 42.2911 -91.3761 302° West 403 464 34,400 581 Climbing Chicago Center
Wed 11:23:02 AM 42.3842 -91.4706 323° Northwest 422 486 35,000 581 Climbing Chicago Center
Wed 11:24:04 AM 42.4736 -91.5644 322° Northwest 413 475 35,600 488 Climbing Chicago Center
Wed 11:25:05 AM 42.5344 -91.6867 304° West 396 456 36,000 195 Climbing Chicago Center
Wed 11:26:07 AM 42.5814 -91.8236 295° West 397 457 36,000  Level Chicago Center
Wed 11:27:09 AM 42.6306 -91.9617 296° West 403 464 36,000  Level Chicago Center
Wed 11:28:11 AM 42.6878 -92.1267 295° West 404 465 36,000  Level Chicago Center
Wed 11:29:13 AM 42.7328 -92.2583 295° West 390 449 36,000  Level Chicago Center
Wed 11:30:15 AM 42.7781 -92.3875 296° West 382 440 36,000  Level Chicago Center
Wed 11:31:17 AM 42.8222 -92.5161 295° West 378 435 36,000  Level Chicago Center
Wed 11:32:19 AM 42.8642 -92.6417 295° West 370 426 36,000  Level Chicago Center
Wed 11:32:59 AM 42.8986 -92.7406 295° West 364 419 36,000  Level Minneapolis Center
Wed 11:34:01 AM 42.9383 -92.8628 294° West 358 412 36,000  Level Minneapolis Center
Wed 11:35:03 AM 42.9797 -92.9856 295° West 358 412 36,000  Level Minneapolis Center
Wed 11:36:05 AM 43.0206 -93.1058 295° West 354 407 36,000  Level Minneapolis Center
Wed 11:37:07 AM 43.0594 -93.2272 294° West 351 404 36,000  Level Minneapolis Center
Wed 11:38:09 AM 43.1031 -93.3764 292° West 354 407 36,000  Level Minneapolis Center
Wed 11:39:11 AM 43.1253 -93.5131 283° West 368 423 36,000  Level Minneapolis Center
Wed 11:40:13 AM 43.1506 -93.6544 284° West 382 440 36,000  Level Minneapolis Center
Wed 11:41:15 AM 43.1764 -93.7956 284° West 386 444 36,000  Level Minneapolis Center
Wed 11:42:17 AM 43.2003 -93.9381 283° West 388 447 36,000  Level Minneapolis Center
Wed 11:43:19 AM 43.2325 -94.1122 284° West 394 453 36,000  Level Minneapolis Center
Wed 11:44:21 AM 43.2542 -94.2572 282° West 392 451 36,000  Level Minneapolis Center
Wed 11:45:23 AM 43.2792 -94.3986 284° West 385 443 36,000 145 Level Minneapolis Center
Wed 11:46:25 AM 43.3033 -94.5444 283° West 390 449 36,300 435 Climbing Minneapolis Center
Wed 11:47:27 AM 43.3267 -94.6881 283° West 389 448 36,900 576 Climbing Minneapolis Center
Wed 11:48:30 AM 43.3556 -94.8606 283° West 388 447 37,500 528 Climbing Minneapolis Center
Wed 11:49:32 AM 43.3783 -95.0033 282° West 384 442 38,000 242 Climbing Minneapolis Center
Wed 11:50:34 AM 43.4008 -95.1433 283° West 379 436 38,000  Level Minneapolis Center
Wed 11:51:36 AM 43.4236 -95.2878 282° West 386 444 38,000  Level Minneapolis Center
Wed 11:52:50 AM 43.4461 -95.4342 282° West 391 450 38,000  Level Minneapolis Center
Wed 11:53:52 AM 43.4692 -95.5814 282° West 394 453 38,000  Level Minneapolis Center
Wed 11:54:54 AM 43.5014 -95.7881 282° West 396 456 38,000  Level Minneapolis Center
Wed 11:55:56 AM 43.5242 -95.9372 282° West 397 457 38,000  Level Minneapolis Center
Wed 11:56:58 AM 43.5464 -96.0858 282° West 396 456 38,000  Level Minneapolis Center
Wed 11:58:01 AM 43.5689 -96.2325 282° West 391 450 38,000  Level Minneapolis Center
Wed 11:59:03 AM 43.5911 -96.3817 282° West 395 455 38,000  Level Minneapolis Center
Wed 12:00:05 PM 43.6128 -96.5303 281° West 395 455 38,000  Level Minneapolis Center
Wed 12:01:07 PM 43.6389 -96.7075 282° West 393 452 38,000  Level Minneapolis Center
Wed 12:02:09 PM 43.6558 -96.8575 279° West 395 455 38,000  Level Minneapolis Center
Wed 12:03:11 PM 43.6667 -97.0078 276° West 393 452 38,000  Level Minneapolis Center
Wed 12:04:13 PM 43.6792 -97.1575 277° West 393 452 38,000  Level Minneapolis Center
Wed 12:05:27 PM 43.6897 -97.3083 276° West 394 453 38,000  Level Minneapolis Center
Wed 12:06:41 PM 43.7036 -97.4900 276° West 397 457 38,000  Level Minneapolis Center
Wed 12:07:44 PM 43.7197 -97.7008 276° West 397 457 38,000  Level Minneapolis Center
Wed 12:08:46 PM 43.7297 -97.8525 275° West 397 457 38,000  Level Minneapolis Center
Wed 12:09:48 PM 43.7408 -98.0036 276° West 397 457 38,000  Level Minneapolis Center
Wed 12:10:50 PM 43.7706 -98.1497 286° West 397 457 38,000  Level Minneapolis Center
Wed 12:11:52 PM 43.8028 -98.2942 287° West 395 455 38,000  Level Minneapolis Center
Wed 12:12:54 PM 43.8347 -98.4386 287° West 394 453 38,000  Level Minneapolis Center
Wed 12:13:56 PM 43.8728 -98.6131 287° West 395 455 38,000  Level Minneapolis Center
Wed 12:14:59 PM 43.9050 -98.7617 287° West 391 450 38,000  Level Minneapolis Center
Wed 12:16:01 PM 43.9350 -98.9078 286° West 392 451 38,000  Level Minneapolis Center
Wed 12:17:15 PM 43.9667 -99.0525 287° West 392 451 38,000  Level Minneapolis Center
Wed 12:18:17 PM 44.0042 -99.2267 287° West 392 451 38,000  Level Minneapolis Center
Wed 12:19:19 PM 44.0344 -99.3731 286° West 393 452 38,000  Level Minneapolis Center
Wed 12:20:34 PM 44.0711 -99.5492 286° West 394 453 38,000  Level Minneapolis Center
Wed 12:21:36 PM 44.1017 -99.6953 286° West 393 452 38,000  Level Minneapolis Center
Wed 12:22:38 PM 44.1381 -99.8725 286° West 394 453 38,000  Level Minneapolis Center
Wed 12:23:40 PM 44.1683 -100.0197 286° West 395 455 38,000  Level Minneapolis Center
Wed 12:24:42 PM 44.1919 -100.1369 286° West 394 453 38,000  Level Minneapolis Center
Wed 12:25:44 PM 44.2292 -100.3147 286° West 396 456 38,000  Level Minneapolis Center
Wed 12:26:46 PM 44.2578 -100.4622 285° West 395 455 38,000  Level Minneapolis Center
Wed 12:27:48 PM 44.2872 -100.6114 285° West 396 456 38,000  Level Minneapolis Center
Wed 12:28:50 PM 44.3167 -100.7594 286° West 396 456 38,000  Level Minneapolis Center
Wed 12:29:52 PM 44.3508 -100.9381 285° West 396 456 38,000  Level Minneapolis Center
Wed 12:30:55 PM 44.3803 -101.0869 286° West 396 456 38,000  Level Minneapolis Center
Wed 12:31:57 PM 44.4097 -101.2361 285° West 396 456 38,000  Level Minneapolis Center
Wed 12:32:59 PM 44.4375 -101.3850 285° West 397 457 38,000  Level Minneapolis Center
Wed 12:34:01 PM 44.4656 -101.5339 285° West 396 456 38,000  Level Minneapolis Center
Wed 12:35:03 PM 44.4944 -101.6833 285° West 396 456 38,000  Level Minneapolis Center
Wed 12:36:05 PM 44.5281 -101.8633 285° West 397 457 38,000  Level Minneapolis Center
Wed 12:37:07 PM 44.5572 -102.0133 285° West 397 457 38,000  Level Minneapolis Center
Wed 12:38:09 PM 44.5842 -102.1636 284° West 398 458 38,000  Level Minneapolis Center
Wed 12:39:11 PM 44.6125 -102.3128 285° West 397 457 38,000  Level Minneapolis Center
Wed 12:40:13 PM 44.6397 -102.4644 284° West 398 458 38,000  Level Minneapolis Center
Wed 12:41:15 PM 44.6672 -102.6167 284° West 400 460 38,000  Level Minneapolis Center
Wed 12:42:17 PM 44.6939 -102.7689 284° West 402 463 38,000  Level Minneapolis Center
Wed 12:43:19 PM 44.7258 -102.9542 284° West 404 465 38,000  Level Minneapolis Center
Wed 12:44:21 PM 44.7208 -103.1128 268° West 404 465 38,000  Level Minneapolis Center
Wed 12:45:24 PM 44.7156 -103.2714 267° West 407 468 38,000  Level Minneapolis Center
Wed 12:46:26 PM 44.7108 -103.4300 268° West 407 468 38,000  Level Minneapolis Center
Wed 12:47:28 PM 44.7050 -103.5889 267° West 407 468 38,000  Level Minneapolis Center
Wed 12:48:30 PM 44.7000 -103.7583 268° West 408 470 38,000  Level Minneapolis Center
Wed 12:49:04 PM 44.6956 -103.8669 267° West 410 472 38,000  Level Salt Lake Center
Wed 12:49:39 PM 44.6931 -103.9444 267° West 407 468 38,000  Level Denver Center
Wed 12:50:41 PM 44.6867 -104.1217 267° West 407 468 38,000  Level Denver Center
Wed 12:51:43 PM 44.6800 -104.2742 267° West 406 467 38,000  Level Denver Center
Wed 12:52:45 PM 44.6750 -104.4261 267° West 407 468 38,000  Level Denver Center
Wed 12:53:47 PM 44.6658 -104.6019 266° West 408 470 38,000  Level Denver Center
Wed 12:54:48 PM 44.6614 -104.7269 267° West 405 466 38,000  Level Denver Center
Wed 12:55:50 PM 44.6533 -104.9042 266° West 406 467 38,000  Level Denver Center
Wed 12:56:53 PM 44.6450 -105.0825 266° West 409 471 38,000  Level Denver Center
Wed 12:57:55 PM 44.6372 -105.2597 267° West 408 470 38,000  Level Denver Center
Wed 12:58:57 PM 44.6297 -105.4147 266° West 409 471 38,000  Level Denver Center
Wed 12:59:59 PM 44.6206 -105.5736 265° West 411 473 38,000  Level Denver Center
Wed 01:01:01 PM 44.6131 -105.7333 266° West 412 474 38,000  Level Denver Center
Wed 01:02:03 PM 44.6025 -105.9272 266° West 414 476 38,000  Level Denver Center
Wed 01:03:05 PM 44.5950 -106.0561 265° West 415 478 38,000  Level Denver Center
Wed 01:04:07 PM 44.5844 -106.2503 266° West 417 480 38,000  Level Denver Center
Wed 01:05:09 PM 44.5750 -106.4117 265° West 417 480 38,000  Level Denver Center
Wed 01:06:11 PM 44.5669 -106.5400 265° West 415 478 38,000  Level Denver Center
Wed 01:07:13 PM 44.5569 -106.7325 266° West 413 475 38,000  Level Denver Center
Wed 01:08:15 PM 44.5439 -106.9261 265° West 415 478 38,000  Level Denver Center
Wed 01:09:17 PM 44.5328 -107.0864 265° West 414 476 38,000  Level Denver Center
Wed 01:10:47 PM 44.5172 -107.3131 265° West 416 479 38,000  Level Salt Lake Center
Wed 01:11:49 PM 44.5056 -107.4731 264° West 412 474 38,000  Level Salt Lake Center
Wed 01:12:51 PM 44.4939 -107.6325 264° West 410 472 38,000  Level Salt Lake Center
Wed 01:13:53 PM 44.4811 -107.8269 265° West 414 476 38,000  Level Salt Lake Center
Wed 01:14:55 PM 44.4692 -107.9881 264° West 414 476 38,000  Level Salt Lake Center
Wed 01:15:57 PM 44.4581 -108.1494 265° West 415 478 38,000  Level Salt Lake Center
Wed 01:16:59 PM 44.4461 -108.3103 264° West 415 478 38,000  Level Salt Lake Center
Wed 01:18:01 PM 44.4344 -108.4708 264° West 414 476 38,000  Level Salt Lake Center
Wed 01:19:03 PM 44.4219 -108.6314 264° West 415 478 38,000  Level Salt Lake Center
Wed 01:20:05 PM 44.4094 -108.7917 264° West 415 478 38,000  Level Salt Lake Center
Wed 01:21:07 PM 44.3936 -108.9836 263° West 415 478 38,000  Level Salt Lake Center
Wed 01:22:10 PM 44.3803 -109.1439 263° West 415 478 38,000  Level Salt Lake Center
Wed 01:23:12 PM 44.3664 -109.3017 263° West 412 474 38,000  Level Salt Lake Center
Wed 01:24:14 PM 44.3519 -109.4753 263° West 411 473 38,000  Level Salt Lake Center
Wed 01:25:16 PM 44.3406 -109.6236 264° West 405 466 38,000  Level Salt Lake Center
Wed 01:26:18 PM 44.3267 -109.7739 263° West 408 470 38,000  Level Salt Lake Center
Wed 01:27:20 PM 44.3106 -109.9481 263° West 406 467 38,000  Level Salt Lake Center
Wed 01:28:22 PM 44.2983 -110.0958 263° West 403 464 38,000  Level Salt Lake Center
Wed 01:29:24 PM 44.2825 -110.2708 263° West 406 467 38,000  Level Salt Lake Center
Wed 01:30:26 PM 44.2667 -110.4178 261° West 403 464 38,000  Level Salt Lake Center
Wed 01:31:28 PM 44.2508 -110.5889 263° West 399 459 38,000  Level Salt Lake Center
Wed 01:32:30 PM 44.2361 -110.7339 262° West 394 453 38,000  Level Salt Lake Center
Wed 01:33:32 PM 44.2194 -110.9033 262° West 394 453 38,000  Level Salt Lake Center
Wed 01:34:34 PM 44.2058 -111.0486 263° West 394 453 38,000  Level Salt Lake Center
Wed 01:35:37 PM 44.1878 -111.2175 262° West 392 451 38,000  Level Salt Lake Center
Wed 01:36:39 PM 44.1733 -111.3614 262° West 390 449 38,000  Level Salt Lake Center
Wed 01:37:41 PM 44.1575 -111.5067 261° West 392 451 38,000  Level Salt Lake Center
Wed 01:38:43 PM 44.1406 -111.6775 262° West 395 455 38,000  Level Salt Lake Center
Wed 01:39:45 PM 44.1253 -111.8219 262° West 394 453 38,000  Level Salt Lake Center
Wed 01:40:47 PM 44.1075 -111.9906 262° West 394 453 38,000  Level Salt Lake Center
Wed 01:41:49 PM 44.0911 -112.1333 261° West 391 450 38,000  Level Salt Lake Center
Wed 01:42:51 PM 44.0714 -112.3014 261° West 392 451 38,000  Level Salt Lake Center
Wed 01:43:53 PM 44.0553 -112.4453 261° West 393 452 38,000  Level Salt Lake Center
Wed 01:44:55 PM 44.0375 -112.6136 262° West 395 455 38,000  Level Salt Lake Center
Wed 01:45:57 PM 44.0194 -112.7572 260° West 394 453 38,000  Level Salt Lake Center
Wed 01:46:59 PM 44.0036 -112.9011 261° West 394 453 38,000  Level Salt Lake Center
Wed 01:48:01 PM 43.9833 -113.0683 260° West 394 453 38,000  Level Salt Lake Center
Wed 01:49:03 PM 43.9683 -113.2106 262° West 392 451 38,000  Level Salt Lake Center
Wed 01:50:05 PM 43.9464 -113.3786 260° West 396 456 38,000  Level Salt Lake Center
Wed 01:51:07 PM 43.9294 -113.5200 261° West 390 449 38,000  Level Salt Lake Center
Wed 01:52:09 PM 43.9114 -113.6881 262° West 390 449 38,000  Level Salt Lake Center
Wed 01:53:11 PM 43.8933 -113.8289 260° West 389 448 38,000 -194 Level Salt Lake Center
Wed 01:54:13 PM 43.8719 -113.9897 260° West 387 445 37,600 -1,016 Descending Salt Lake Center
Wed 01:55:15 PM 43.8553 -114.1269 260° West 377 434 35,900 -1,984 Descending Salt Lake Center
Wed 01:56:17 PM 43.8325 -114.2819 259° West 362 417 33,500 -2,226 Descending Salt Lake Center
Wed 01:57:19 PM 43.8153 -114.4181 260° West 376 433 31,300 -2,226 Descending Salt Lake Center
Wed 01:58:21 PM 43.7917 -114.5939 260° West 416 479 28,900 -2,274 Descending Salt Lake Center
Wed 01:59:23 PM 43.7714 -114.7483 260° West 425 489 26,600 -2,468 Descending Salt Lake Center
Wed 02:00:25 PM 43.7503 -114.9203 260° West 409 471 23,800 -2,419 Descending Salt Lake Center
Wed 02:01:27 PM 43.7314 -115.0600 259° West 387 445 21,600 -2,081 Descending Salt Lake Center
Wed 02:02:29 PM 43.7125 -115.1944 259° West 376 433 19,500 -1,694 Descending Salt Lake Center
Wed 02:03:31 PM 43.6906 -115.3489 259° West 368 423 18,100 -1,403 Descending Salt Lake Center
Wed 02:04:33 PM 43.6708 -115.4883 259° West 358 412 16,600 -1,548 Descending Salt Lake Center
Wed 02:05:35 PM 43.6392 -115.6228 252° West 358 412 14,900 -2,064 Descending Salt Lake Center
Wed 02:06:38 PM 43.5903 -115.7369 239° Southwest 336 387 12,300 -2,448 Descending Salt Lake Center
Wed 02:07:40 PM 43.5433 -115.8489 240° Southwest 324 373 9,800 -2,371 Descending Salt Lake Center
Wed 02:08:42 PM 43.5058 -115.9478 242° Southwest 286 329 7,400 -2,323 Descending Salt Lake Center

Login

Don't have an account? Register now (free) for customized features, flight alerts, and more!